sensor_id;sensor_type;location;lat;lon;timestamp;pressure;altitude;pressure_sealevel;temperature;humidity
58239;BME280;44037;55.638;37.356;2023-03-29T00:02:16;98186.56;;;6.75;88.25
58239;BME280;44037;55.638;37.356;2023-03-29T00:04:44;98190.00;;;6.79;88.17
58239;BME280;44037;55.638;37.356;2023-03-29T00:07:12;98184.88;;;6.79;87.23
58239;BME280;44037;55.638;37.356;2023-03-29T00:09:40;98178.84;;;6.80;87.49
58239;BME280;44037;55.638;37.356;2023-03-29T00:12:07;98186.59;;;6.80;87.11
58239;BME280;44037;55.638;37.356;2023-03-29T00:14:35;98185.69;;;6.76;87.40
58239;BME280;44037;55.638;37.356;2023-03-29T00:17:02;98176.28;;;6.77;87.91
58239;BME280;44037;55.638;37.356;2023-03-29T00:19:29;98179.69;;;6.76;86.48
58239;BME280;44037;55.638;37.356;2023-03-29T00:22:01;98172.81;;;6.69;87.06
58239;BME280;44037;55.638;37.356;2023-03-29T00:24:31;98182.28;;;6.67;87.78
58239;BME280;44037;55.638;37.356;2023-03-29T00:26:59;98167.69;;;6.66;86.95
58239;BME280;44037;55.638;37.356;2023-03-29T00:29:26;98164.25;;;6.64;87.46
58239;BME280;44037;55.638;37.356;2023-03-29T00:31:53;98149.66;;;6.63;87.33
58239;BME280;44037;55.638;37.356;2023-03-29T00:34:20;98167.66;;;6.63;87.70
58239;BME280;44037;55.638;37.356;2023-03-29T00:36:47;98157.38;;;6.63;87.19
58239;BME280;44037;55.638;37.356;2023-03-29T00:39:18;98156.53;;;6.64;87.57
58239;BME280;44037;55.638;37.356;2023-03-29T00:41:47;98164.25;;;6.64;87.39
58239;BME280;44037;55.638;37.356;2023-03-29T00:44:54;98164.25;;;6.64;87.21
58239;BME280;44037;55.638;37.356;2023-03-29T00:47:25;98162.53;;;6.63;87.26
58239;BME280;44037;55.638;37.356;2023-03-29T00:49:54;98159.09;;;6.60;87.13
58239;BME280;44037;55.638;37.356;2023-03-29T00:52:26;98158.25;;;6.60;87.00
58239;BME280;44037;55.638;37.356;2023-03-29T00:54:57;98139.34;;;6.55;87.18
58239;BME280;44037;55.638;37.356;2023-03-29T00:57:28;98135.06;;;6.52;86.87
58239;BME280;44037;55.638;37.356;2023-03-29T00:59:57;98144.50;;;6.50;87.01
58239;BME280;44037;55.638;37.356;2023-03-29T01:02:26;98135.06;;;6.49;87.42
58239;BME280;44037;55.638;37.356;2023-03-29T01:04:57;98141.03;;;6.50;87.36
58239;BME280;44037;55.638;37.356;2023-03-29T01:07:33;98140.19;;;6.46;86.74
58239;BME280;44037;55.638;37.356;2023-03-29T01:10:06;98138.47;;;6.40;86.91
58239;BME280;44037;55.638;37.356;2023-03-29T01:12:40;98130.75;;;6.36;87.52
58239;BME280;44037;55.638;37.356;2023-03-29T01:15:10;98139.31;;;6.35;87.22
58239;BME280;44037;55.638;37.356;2023-03-29T01:17:37;98146.16;;;6.28;87.28
58239;BME280;44037;55.638;37.356;2023-03-29T01:20:11;98131.59;;;6.25;87.99
58239;BME280;44037;55.638;37.356;2023-03-29T01:22:55;98134.16;;;6.25;88.52
58239;BME280;44037;55.638;37.356;2023-03-29T01:25:31;98127.28;;;6.24;87.99
58239;BME280;44037;55.638;37.356;2023-03-29T01:28:05;98117.00;;;6.21;87.88
58239;BME280;44037;55.638;37.356;2023-03-29T01:30:38;98119.56;;;6.21;87.38
58239;BME280;44037;55.638;37.356;2023-03-29T01:33:10;98120.41;;;6.19;88.06
58239;BME280;44037;55.638;37.356;2023-03-29T01:35:42;98111.81;;;6.18;88.60
58239;BME280;44037;55.638;37.356;2023-03-29T01:38:14;98106.69;;;6.18;87.97
58239;BME280;44037;55.638;37.356;2023-03-29T01:40:45;98107.56;;;6.17;88.79
58239;BME280;44037;55.638;37.356;2023-03-29T01:43:23;98099.81;;;6.15;88.63
58239;BME280;44037;55.638;37.356;2023-03-29T01:45:58;98111.81;;;6.13;88.86
58239;BME280;44037;55.638;37.356;2023-03-29T01:48:30;98101.56;;;6.10;88.19
58239;BME280;44037;55.638;37.356;2023-03-29T01:51:03;98093.81;;;6.07;88.17
58239;BME280;44037;55.638;37.356;2023-03-29T01:53:36;98096.38;;;6.04;88.68
58239;BME280;44037;55.638;37.356;2023-03-29T01:56:07;98088.69;;;6.03;88.52
58239;BME280;44037;55.638;37.356;2023-03-29T01:58:41;98090.38;;;6.04;88.95
58239;BME280;44037;55.638;37.356;2023-03-29T02:01:11;98096.38;;;6.03;89.19
58239;BME280;44037;55.638;37.356;2023-03-29T02:03:48;98088.69;;;6.03;89.02
58239;BME280;44037;55.638;37.356;2023-03-29T02:06:21;98091.22;;;5.99;88.99
58239;BME280;44037;55.638;37.356;2023-03-29T02:08:52;98094.63;;;5.97;89.74
58239;BME280;44037;55.638;37.356;2023-03-29T02:11:20;98097.19;;;5.94;89.93
58239;BME280;44037;55.638;37.356;2023-03-29T02:13:50;98077.47;;;5.93;89.58
58239;BME280;44037;55.638;37.356;2023-03-29T02:16:18;98087.75;;;5.93;89.58
58239;BME280;44037;55.638;37.356;2023-03-29T02:18:47;98091.19;;;5.90;90.15
58239;BME280;44037;55.638;37.356;2023-03-29T02:21:18;98074.03;;;5.91;90.54
58239;BME280;44037;55.638;37.356;2023-03-29T02:23:48;98077.47;;;5.94;90.55
58239;BME280;44037;55.638;37.356;2023-03-29T02:26:19;98068.91;;;5.94;90.11
58239;BME280;44037;55.638;37.356;2023-03-29T02:28:50;98066.31;;;5.95;90.75
58239;BME280;44037;55.638;37.356;2023-03-29T02:31:21;98054.31;;;5.94;89.90
58239;BME280;44037;55.638;37.356;2023-03-29T02:33:55;98057.75;;;5.93;90.26
58239;BME280;44037;55.638;37.356;2023-03-29T02:36:26;98056.03;;;5.95;91.27
58239;BME280;44037;55.638;37.356;2023-03-29T02:38:55;98046.63;;;5.96;90.12
58239;BME280;44037;55.638;37.356;2023-03-29T02:41:24;98056.88;;;5.94;90.36
58239;BME280;44037;55.638;37.356;2023-03-29T02:43:53;98047.47;;;5.93;90.65
58239;BME280;44037;55.638;37.356;2023-03-29T02:46:22;98041.47;;;5.93;90.28
58239;BME280;44037;55.638;37.356;2023-03-29T02:48:51;98040.59;;;5.92;91.15
58239;BME280;44037;55.638;37.356;2023-03-29T02:51:21;98044.03;;;5.94;91.43
58239;BME280;44037;55.638;37.356;2023-03-29T02:53:52;98038.03;;;5.95;91.15
58239;BME280;44037;55.638;37.356;2023-03-29T02:56:23;98037.19;;;5.96;91.37
58239;BME280;44037;55.638;37.356;2023-03-29T02:58:50;98036.34;;;5.97;90.78
58239;BME280;44037;55.638;37.356;2023-03-29T03:01:18;98032.09;;;5.99;91.42
58239;BME280;44037;55.638;37.356;2023-03-29T03:03:47;98040.66;;;6.02;92.12
58239;BME280;44037;55.638;37.356;2023-03-29T03:06:15;98042.38;;;6.01;90.83
58239;BME280;44037;55.638;37.356;2023-03-29T03:08:42;98040.66;;;6.02;91.29
58239;BME280;44037;55.638;37.356;2023-03-29T03:11:10;98038.09;;;6.02;91.23
58239;BME280;44037;55.638;37.356;2023-03-29T03:13:37;98022.66;;;6.03;91.15
58239;BME280;44037;55.638;37.356;2023-03-29T03:16:05;98032.97;;;6.05;90.82
58239;BME280;44037;55.638;37.356;2023-03-29T03:18:33;98023.53;;;6.07;91.48
58239;BME280;44037;55.638;37.356;2023-03-29T03:21:00;98030.38;;;6.08;91.33
58239;BME280;44037;55.638;37.356;2023-03-29T03:23:29;98012.38;;;6.08;90.88
58239;BME280;44037;55.638;37.356;2023-03-29T03:25:56;98009.81;;;6.06;91.15
58239;BME280;44037;55.638;37.356;2023-03-29T03:28:23;98016.66;;;6.06;90.60
58239;BME280;44037;55.638;37.356;2023-03-29T03:30:51;98016.69;;;6.07;91.09
58239;BME280;44037;55.638;37.356;2023-03-29T03:33:19;98022.69;;;6.11;90.75
58239;BME280;44037;55.638;37.356;2023-03-29T03:35:47;98025.25;;;6.14;90.78
58239;BME280;44037;55.638;37.356;2023-03-29T03:38:14;98032.09;;;6.18;90.68
58239;BME280;44037;55.638;37.356;2023-03-29T03:40:41;98017.56;;;6.22;90.50
58239;BME280;44037;55.638;37.356;2023-03-29T03:43:08;98018.41;;;6.25;91.28
58239;BME280;44037;55.638;37.356;2023-03-29T03:45:36;98012.44;;;6.29;91.15
58239;BME280;44037;55.638;37.356;2023-03-29T03:48:04;98020.97;;;6.35;90.76
58239;BME280;44037;55.638;37.356;2023-03-29T03:50:31;98018.41;;;6.39;90.42
58239;BME280;44037;55.638;37.356;2023-03-29T03:53:00;98020.13;;;6.43;90.12
58239;BME280;44037;55.638;37.356;2023-03-29T03:55:27;98023.56;;;6.50;90.13
58239;BME280;44037;55.638;37.356;2023-03-29T03:57:57;98015.84;;;6.53;89.77
58239;BME280;44037;55.638;37.356;2023-03-29T04:00:24;98009.84;;;6.56;89.47
58239;BME280;44037;55.638;37.356;2023-03-29T04:02:51;98012.38;;;6.65;89.57
58239;BME280;44037;55.638;37.356;2023-03-29T04:05:19;98008.09;;;6.72;89.38
58239;BME280;44037;55.638;37.356;2023-03-29T04:07:46;98002.94;;;6.78;88.51
58239;BME280;44037;55.638;37.356;2023-03-29T04:10:15;98015.78;;;6.84;88.53
58239;BME280;44037;55.638;37.356;2023-03-29T04:12:42;98014.06;;;6.89;88.57
58239;BME280;44037;55.638;37.356;2023-03-29T04:15:09;98000.34;;;6.95;88.22
58239;BME280;44037;55.638;37.356;2023-03-29T04:17:36;97998.59;;;7.00;87.99
58239;BME280;44037;55.638;37.356;2023-03-29T04:20:04;97992.56;;;7.09;87.23
58239;BME280;44037;55.638;37.356;2023-03-29T04:22:36;97995.94;;;7.20;86.68
58239;BME280;44037;55.638;37.356;2023-03-29T04:25:04;97989.91;;;7.32;86.89
58239;BME280;44037;55.638;37.356;2023-03-29T04:27:34;97985.59;;;7.36;85.60
58239;BME280;44037;55.638;37.356;2023-03-29T04:30:01;97985.56;;;7.42;85.78
58239;BME280;44037;55.638;37.356;2023-03-29T04:32:29;97991.53;;;7.50;85.04
58239;BME280;44037;55.638;37.356;2023-03-29T04:34:56;97985.50;;;7.55;85.15
58239;BME280;44037;55.638;37.356;2023-03-29T04:37:24;97993.25;;;7.55;84.70
58239;BME280;44037;55.638;37.356;2023-03-29T04:39:52;97994.06;;;7.57;83.90
58239;BME280;44037;55.638;37.356;2023-03-29T04:42:19;97993.22;;;7.56;84.02
58239;BME280;44037;55.638;37.356;2023-03-29T04:44:48;97986.38;;;7.53;83.82
58239;BME280;44037;55.638;37.356;2023-03-29T04:47:15;97976.06;;;7.55;83.80
58239;BME280;44037;55.638;37.356;2023-03-29T04:49:42;97982.91;;;7.62;83.92
58239;BME280;44037;55.638;37.356;2023-03-29T04:52:10;97970.81;;;7.71;83.48
58239;BME280;44037;55.638;37.356;2023-03-29T04:54:37;97972.44;;;7.82;83.19
58239;BME280;44037;55.638;37.356;2023-03-29T04:57:04;97977.53;;;7.96;83.08
58239;BME280;44037;55.638;37.356;2023-03-29T04:59:32;97973.13;;;8.09;83.17
58239;BME280;44037;55.638;37.356;2023-03-29T05:02:01;97975.66;;;8.19;81.94
58239;BME280;44037;55.638;37.356;2023-03-29T05:04:28;97973.03;;;8.22;81.56
58239;BME280;44037;55.638;37.356;2023-03-29T05:06:55;97976.47;;;8.22;81.76
58239;BME280;44037;55.638;37.356;2023-03-29T05:09:23;97969.59;;;8.23;81.71
58239;BME280;44037;55.638;37.356;2023-03-29T05:11:50;97973.88;;;8.24;81.36
58239;BME280;44037;55.638;37.356;2023-03-29T05:14:18;97974.78;;;8.18;80.67
58239;BME280;44037;55.638;37.356;2023-03-29T05:16:45;97975.69;;;8.12;80.98
58239;BME280;44037;55.638;37.356;2023-03-29T05:19:13;97961.97;;;8.09;81.13
58239;BME280;44037;55.638;37.356;2023-03-29T05:21:41;97976.63;;;8.05;80.59
58239;BME280;44037;55.638;37.356;2023-03-29T05:24:09;97981.78;;;8.02;80.34
58239;BME280;44037;55.638;37.356;2023-03-29T05:26:36;97974.94;;;7.99;81.18
58239;BME280;44037;55.638;37.356;2023-03-29T05:29:04;97977.50;;;7.99;80.74
58239;BME280;44037;55.638;37.356;2023-03-29T05:31:33;97968.03;;;8.00;80.80
58239;BME280;44037;55.638;37.356;2023-03-29T05:34:02;97977.50;;;8.01;80.44
58239;BME280;44037;55.638;37.356;2023-03-29T05:36:31;97980.84;;;8.12;80.18
58239;BME280;44037;55.638;37.356;2023-03-29T05:38:59;97968.69;;;8.30;79.32
58239;BME280;44037;55.638;37.356;2023-03-29T05:41:26;97979.75;;;8.41;79.13
58239;BME280;44037;55.638;37.356;2023-03-29T05:43:53;97979.75;;;8.41;79.45
58239;BME280;44037;55.638;37.356;2023-03-29T05:46:20;97984.91;;;8.43;78.97
58239;BME280;44037;55.638;37.356;2023-03-29T05:48:47;97963.38;;;8.49;78.86
58239;BME280;44037;55.638;37.356;2023-03-29T05:51:15;97966.72;;;8.60;78.80
58239;BME280;44037;55.638;37.356;2023-03-29T05:53:44;97982.94;;;8.71;78.38
58239;BME280;44037;55.638;37.356;2023-03-29T05:56:11;97970.81;;;8.81;78.32
58239;BME280;44037;55.638;37.356;2023-03-29T05:58:40;97983.66;;;8.87;77.93
58239;BME280;44037;55.638;37.356;2023-03-29T06:01:10;97984.50;;;8.88;77.54
58239;BME280;44037;55.638;37.356;2023-03-29T06:03:38;97970.72;;;8.89;77.21
58239;BME280;44037;55.638;37.356;2023-03-29T06:06:06;97963.81;;;8.91;77.09
58239;BME280;44037;55.638;37.356;2023-03-29T06:08:35;97968.91;;;8.97;76.94
58239;BME280;44037;55.638;37.356;2023-03-29T06:11:05;97961.13;;;9.00;76.24
58239;BME280;44037;55.638;37.356;2023-03-29T06:13:33;97970.56;;;9.04;76.11
58239;BME280;44037;55.638;37.356;2023-03-29T06:16:01;97959.31;;;9.10;76.30
58239;BME280;44037;55.638;37.356;2023-03-29T06:18:30;97966.13;;;9.16;75.79
58239;BME280;44037;55.638;37.356;2023-03-29T06:20:58;97948.97;;;9.10;74.67
58239;BME280;44037;55.638;37.356;2023-03-29T06:23:26;97961.88;;;9.10;74.63
58239;BME280;44037;55.638;37.356;2023-03-29T06:25:54;97966.16;;;9.13;74.86
58239;BME280;44037;55.638;37.356;2023-03-29T06:28:22;97956.63;;;9.18;74.72
58239;BME280;44037;55.638;37.356;2023-03-29T06:30:49;97955.78;;;9.16;74.31
58239;BME280;44037;55.638;37.356;2023-03-29T06:33:18;97960.16;;;9.11;75.25
58239;BME280;44037;55.638;37.356;2023-03-29T06:35:47;97957.59;;;9.07;74.54
58239;BME280;44037;55.638;37.356;2023-03-29T06:38:15;97963.56;;;9.13;74.60
58239;BME280;44037;55.638;37.356;2023-03-29T06:40:42;97959.19;;;9.19;74.40
58239;BME280;44037;55.638;37.356;2023-03-29T06:43:10;97955.69;;;9.22;74.22
58239;BME280;44037;55.638;37.356;2023-03-29T06:45:38;97955.69;;;9.22;74.32
58239;BME280;44037;55.638;37.356;2023-03-29T06:48:06;97944.50;;;9.25;74.20
58239;BME280;44037;55.638;37.356;2023-03-29T06:50:34;97960.88;;;9.24;74.10
58239;BME280;44037;55.638;37.356;2023-03-29T06:53:01;97960.97;;;9.14;74.58
58239;BME280;44037;55.638;37.356;2023-03-29T06:55:28;97967.06;;;9.09;74.57
58239;BME280;44037;55.638;37.356;2023-03-29T06:57:56;97961.97;;;9.02;75.04
58239;BME280;44037;55.638;37.356;2023-03-29T07:00:24;97968.00;;;9.01;74.79
58239;BME280;44037;55.638;37.356;2023-03-29T07:02:55;97960.25;;;9.01;74.85
58239;BME280;44037;55.638;37.356;2023-03-29T07:05:25;97967.28;;;8.88;75.76
58239;BME280;44037;55.638;37.356;2023-03-29T07:07:53;97953.59;;;8.82;76.13
58239;BME280;44037;55.638;37.356;2023-03-29T07:10:23;97950.16;;;8.81;76.77
58239;BME280;44037;55.638;37.356;2023-03-29T07:12:53;97952.69;;;8.83;77.37
58239;BME280;44037;55.638;37.356;2023-03-29T07:15:21;97967.31;;;8.84;77.11
58239;BME280;44037;55.638;37.356;2023-03-29T07:17:48;97956.09;;;8.88;78.15
58239;BME280;44037;55.638;37.356;2023-03-29T07:20:17;97961.94;;;9.04;77.35
58239;BME280;44037;55.638;37.356;2023-03-29T07:22:44;97957.59;;;9.07;77.47
58239;BME280;44037;55.638;37.356;2023-03-29T07:25:13;97947.41;;;8.97;78.14
58239;BME280;44037;55.638;37.356;2023-03-29T07:27:42;97971.63;;;8.86;78.34
58239;BME280;44037;55.638;37.356;2023-03-29T07:30:11;97975.97;;;8.81;78.11
58239;BME280;44037;55.638;37.356;2023-03-29T07:32:39;97958.50;;;9.02;78.37
58239;BME280;44037;55.638;37.356;2023-03-29T07:35:09;97967.09;;;9.04;78.56
58239;BME280;44037;55.638;37.356;2023-03-29T07:37:39;97962.81;;;9.03;78.92
58239;BME280;44037;55.638;37.356;2023-03-29T07:40:08;97968.84;;;9.03;79.30
58239;BME280;44037;55.638;37.356;2023-03-29T07:42:38;97979.25;;;8.97;79.65
58239;BME280;44037;55.638;37.356;2023-03-29T07:45:06;97976.66;;;8.97;79.65
58239;BME280;44037;55.638;37.356;2023-03-29T07:47:34;97968.19;;;8.83;80.03
58239;BME280;44037;55.638;37.356;2023-03-29T07:50:01;97976.03;;;8.76;80.43
58239;BME280;44037;55.638;37.356;2023-03-29T07:52:29;97976.03;;;8.76;80.72
58239;BME280;44037;55.638;37.356;2023-03-29T07:54:58;97981.22;;;8.70;81.65
58239;BME280;44037;55.638;37.356;2023-03-29T07:57:26;97980.44;;;8.65;81.97
58239;BME280;44037;55.638;37.356;2023-03-29T07:59:53;97996.88;;;8.56;82.96
58239;BME280;44037;55.638;37.356;2023-03-29T08:02:20;97968.53;;;8.50;82.61
58239;BME280;44037;55.638;37.356;2023-03-29T08:04:48;97971.97;;;8.44;83.01
58239;BME280;44037;55.638;37.356;2023-03-29T08:07:16;97974.56;;;8.44;83.50
58239;BME280;44037;55.638;37.356;2023-03-29T08:09:45;97977.03;;;8.62;83.12
58239;BME280;44037;55.638;37.356;2023-03-29T08:12:14;97976.91;;;8.74;82.80
58239;BME280;44037;55.638;37.356;2023-03-29T08:14:41;97976.06;;;8.70;83.30
58239;BME280;44037;55.638;37.356;2023-03-29T08:17:09;97968.19;;;8.84;83.03
58239;BME280;44037;55.638;37.356;2023-03-29T08:19:36;97951.53;;;9.12;82.41
58239;BME280;44037;55.638;37.356;2023-03-29T08:22:03;97953.81;;;9.38;82.05
58239;BME280;44037;55.638;37.356;2023-03-29T08:24:30;97933.78;;;9.51;81.53
58239;BME280;44037;55.638;37.356;2023-03-29T08:26:57;97938.94;;;9.54;80.85
58239;BME280;44037;55.638;37.356;2023-03-29T08:29:25;97955.88;;;9.74;80.49
58239;BME280;44037;55.638;37.356;2023-03-29T08:31:53;97948.69;;;9.94;79.19
58239;BME280;44037;55.638;37.356;2023-03-29T08:34:21;97949.31;;;10.09;79.18
58239;BME280;44037;55.638;37.356;2023-03-29T08:36:48;97942.38;;;10.12;78.92
58239;BME280;44037;55.638;37.356;2023-03-29T08:39:17;97940.72;;;10.08;78.66
58239;BME280;44037;55.638;37.356;2023-03-29T08:41:51;97951.25;;;9.96;78.49
58239;BME280;44037;55.638;37.356;2023-03-29T08:44:37;97947.06;;;9.87;78.25
58239;BME280;44037;55.638;37.356;2023-03-29T08:47:13;97936.03;;;9.76;78.54
58239;BME280;44037;55.638;37.356;2023-03-29T08:49:46;97935.31;;;9.67;79.31
58239;BME280;44037;55.638;37.356;2023-03-29T08:52:21;97940.47;;;9.67;79.00
58239;BME280;44037;55.638;37.356;2023-03-29T08:54:52;97926.66;;;9.68;79.75
58239;BME280;44037;55.638;37.356;2023-03-29T08:57:24;97950.63;;;9.78;79.87
58239;BME280;44037;55.638;37.356;2023-03-29T08:59:58;97931.78;;;9.72;79.88
58239;BME280;44037;55.638;37.356;2023-03-29T09:02:30;97943.59;;;9.88;79.79
58239;BME280;44037;55.638;37.356;2023-03-29T09:05:04;97928.69;;;10.04;79.69
58239;BME280;44037;55.638;37.356;2023-03-29T09:07:32;97925.16;;;10.10;79.74
58239;BME280;44037;55.638;37.356;2023-03-29T09:09:59;97932.00;;;10.14;79.62
58239;BME280;44037;55.638;37.356;2023-03-29T09:12:38;97930.34;;;10.08;80.19
58239;BME280;44037;55.638;37.356;2023-03-29T09:15:14;97938.84;;;10.18;80.52
58239;BME280;44037;55.638;37.356;2023-03-29T09:17:54;97941.34;;;10.21;80.48
58239;BME280;44037;55.638;37.356;2023-03-29T09:20:31;97917.31;;;10.14;80.54
58239;BME280;44037;55.638;37.356;2023-03-29T09:23:24;97941.66;;;10.03;80.41
58239;BME280;44037;55.638;37.356;2023-03-29T09:25:57;97944.56;;;9.82;81.49
58239;BME280;44037;55.638;37.356;2023-03-29T09:28:33;97931.84;;;9.67;81.67
58239;BME280;44037;55.638;37.356;2023-03-29T09:31:05;97938.94;;;9.54;82.57
58239;BME280;44037;55.638;37.356;2023-03-29T09:33:40;97937.25;;;9.50;82.85
58239;BME280;44037;55.638;37.356;2023-03-29T09:36:11;97942.44;;;9.50;83.21
58239;BME280;44037;55.638;37.356;2023-03-29T09:38:45;97925.25;;;9.46;83.93
58239;BME280;44037;55.638;37.356;2023-03-29T09:41:21;97933.13;;;9.38;84.40
58239;BME280;44037;55.638;37.356;2023-03-29T09:43:51;97936.47;;;9.43;84.66
58239;BME280;44037;55.638;37.356;2023-03-29T09:46:26;97934.78;;;9.42;84.75
58239;BME280;44037;55.638;37.356;2023-03-29T09:48:55;97940.81;;;9.43;85.40
58239;BME280;44037;55.638;37.356;2023-03-29T09:51:25;97928.66;;;9.49;85.94
58239;BME280;44037;55.638;37.356;2023-03-29T09:53:55;97919.16;;;9.50;85.73
58239;BME280;44037;55.638;37.356;2023-03-29T09:56:22;97926.84;;;9.56;86.30
58239;BME280;44037;55.638;37.356;2023-03-29T09:58:49;97924.19;;;9.61;85.96
58239;BME280;44037;55.638;37.356;2023-03-29T10:01:16;97926.75;;;9.62;86.39
58239;BME280;44037;55.638;37.356;2023-03-29T10:03:50;97935.34;;;9.64;85.81
58239;BME280;44037;55.638;37.356;2023-03-29T10:06:19;97914.78;;;9.55;86.90
58239;BME280;44037;55.638;37.356;2023-03-29T10:08:50;97929.53;;;9.48;87.25
58239;BME280;44037;55.638;37.356;2023-03-29T10:11:20;97919.19;;;9.48;87.72
58239;BME280;44037;55.638;37.356;2023-03-29T10:13:51;97907.22;;;9.43;87.50
58239;BME280;44037;55.638;37.356;2023-03-29T10:16:21;97909.97;;;9.30;88.21
58239;BME280;44037;55.638;37.356;2023-03-29T10:18:50;97909.81;;;9.40;88.52
58239;BME280;44037;55.638;37.356;2023-03-29T10:21:20;97928.81;;;9.37;88.96
58239;BME280;44037;55.638;37.356;2023-03-29T10:23:51;97920.22;;;9.33;88.23
58239;BME280;44037;55.638;37.356;2023-03-29T10:26:26;97912.47;;;9.33;88.60
58239;BME280;44037;55.638;37.356;2023-03-29T10:28:54;97915.28;;;9.16;89.58
58239;BME280;44037;55.638;37.356;2023-03-29T10:31:27;97922.34;;;9.03;90.65
58239;BME280;44037;55.638;37.356;2023-03-29T10:34:00;97907.75;;;8.99;91.77
58239;BME280;44037;55.638;37.356;2023-03-29T10:36:28;97912.09;;;8.96;92.04
58239;BME280;44037;55.638;37.356;2023-03-29T10:38:58;97895.78;;;8.94;93.17
58239;BME280;44037;55.638;37.356;2023-03-29T10:41:26;97905.16;;;8.99;92.50
58239;BME280;44037;55.638;37.356;2023-03-29T10:43:55;97902.59;;;8.99;92.49
58239;BME280;44037;55.638;37.356;2023-03-29T10:46:27;97905.19;;;8.96;92.74
58239;BME280;44037;55.638;37.356;2023-03-29T10:48:57;97890.53;;;9.00;93.01
58239;BME280;44037;55.638;37.356;2023-03-29T10:51:27;97919.78;;;9.00;93.58
58239;BME280;44037;55.638;37.356;2023-03-29T10:53:56;97893.06;;;9.04;93.93
58239;BME280;44037;55.638;37.356;2023-03-29T10:56:34;97891.22;;;9.13;93.16
58239;BME280;44037;55.638;37.356;2023-03-29T10:59:23;97893.78;;;9.14;94.07
58239;BME280;44037;55.638;37.356;2023-03-29T11:02:23;97902.53;;;9.04;94.55
58239;BME280;44037;55.638;37.356;2023-03-29T11:05:01;97910.34;;;8.99;94.70
58239;BME280;44037;55.638;37.356;2023-03-29T11:07:36;97900.09;;;8.93;95.18
58239;BME280;44037;55.638;37.356;2023-03-29T11:10:22;97910.44;;;8.90;95.72
58239;BME280;44037;55.638;37.356;2023-03-29T11:12:54;97914.72;;;8.94;94.76
58239;BME280;44037;55.638;37.356;2023-03-29T11:15:37;97908.63;;;8.98;96.05
58239;BME280;44037;55.638;37.356;2023-03-29T11:18:25;97911.25;;;8.97;95.72
58239;BME280;44037;55.638;37.356;2023-03-29T11:21:03;97918.16;;;8.95;96.51
58239;BME280;44037;55.638;37.356;2023-03-29T11:23:42;97907.78;;;8.96;97.03
58239;BME280;44037;55.638;37.356;2023-03-29T11:26:16;97921.56;;;8.95;97.22
58239;BME280;44037;55.638;37.356;2023-03-29T11:28:51;97924.22;;;8.92;97.13
58239;BME280;44037;55.638;37.356;2023-03-29T11:31:28;97929.44;;;8.87;96.87
58239;BME280;44037;55.638;37.356;2023-03-29T11:34:13;97926.00;;;8.84;98.23
58239;BME280;44037;55.638;37.356;2023-03-29T11:36:52;97931.22;;;8.81;98.65
58239;BME280;44037;55.638;37.356;2023-03-29T11:39:29;97911.41;;;8.81;98.58
58239;BME280;44037;55.638;37.356;2023-03-29T11:42:02;97918.25;;;8.85;98.49
58239;BME280;44037;55.638;37.356;2023-03-29T11:44:33;97912.13;;;8.94;98.90
58239;BME280;44037;55.638;37.356;2023-03-29T11:47:05;97925.84;;;9.01;99.26
58239;BME280;44037;55.638;37.356;2023-03-29T11:49:37;97906.91;;;8.97;99.51
58239;BME280;44037;55.638;37.356;2023-03-29T11:52:11;97915.53;;;8.96;100.00
58239;BME280;44037;55.638;37.356;2023-03-29T11:54:42;97925.88;;;8.98;100.00
58239;BME280;44037;55.638;37.356;2023-03-29T11:57:17;97918.94;;;9.01;100.00
58239;BME280;44037;55.638;37.356;2023-03-29T11:59:50;97920.59;;;9.04;100.00
58239;BME280;44037;55.638;37.356;2023-03-29T12:02:24;97929.28;;;8.98;100.00
58239;BME280;44037;55.638;37.356;2023-03-29T12:04:56;97928.47;;;8.95;99.89
58239;BME280;44037;55.638;37.356;2023-03-29T12:07:29;97925.94;;;8.90;100.00
58239;BME280;44037;55.638;37.356;2023-03-29T12:10:00;97922.56;;;8.85;100.00
58239;BME280;44037;55.638;37.356;2023-03-29T12:12:37;97922.63;;;8.82;100.00
58239;BME280;44037;55.638;37.356;2023-03-29T12:15:12;97930.38;;;8.77;100.00
58239;BME280;44037;55.638;37.356;2023-03-29T12:17:45;97922.69;;;8.72;100.00
58239;BME280;44037;55.638;37.356;2023-03-29T12:20:20;97936.53;;;8.67;100.00
58239;BME280;44037;55.638;37.356;2023-03-29T12:22:53;97921.06;;;8.65;100.00
58239;BME280;44037;55.638;37.356;2023-03-29T12:25:25;97926.28;;;8.60;100.00
58239;BME280;44037;55.638;37.356;2023-03-29T12:28:06;97928.00;;;8.57;100.00
58239;BME280;44037;55.638;37.356;2023-03-29T12:30:49;97939.22;;;8.54;100.00
58239;BME280;44037;55.638;37.356;2023-03-29T12:36:57;97935.75;;;8.58;100.00
58239;BME280;44037;55.638;37.356;2023-03-29T12:39:29;97934.84;;;8.61;100.00
58239;BME280;44037;55.638;37.356;2023-03-29T12:42:06;97929.69;;;8.61;100.00
58239;BME280;44037;55.638;37.356;2023-03-29T12:44:40;97931.41;;;8.62;100.00
58239;BME280;44037;55.638;37.356;2023-03-29T12:47:16;97934.88;;;8.63;100.00
58239;BME280;44037;55.638;37.356;2023-03-29T12:49:44;97919.38;;;8.61;100.00
58239;BME280;44037;55.638;37.356;2023-03-29T12:52:22;97940.03;;;8.58;100.00
58239;BME280;44037;55.638;37.356;2023-03-29T12:54:55;97929.75;;;8.56;100.00
58239;BME280;44037;55.638;37.356;2023-03-29T12:57:26;97941.72;;;8.62;100.00
58239;BME280;44037;55.638;37.356;2023-03-29T12:59:54;97932.19;;;8.72;100.00
58239;BME280;44037;55.638;37.356;2023-03-29T13:02:34;97925.91;;;8.93;100.00
58239;BME280;44037;55.638;37.356;2023-03-29T13:05:02;97937.97;;;8.94;100.00
58239;BME280;44037;55.638;37.356;2023-03-29T13:07:44;97937.25;;;8.80;100.00
58239;BME280;44037;55.638;37.356;2023-03-29T13:10:38;97942.59;;;8.64;100.00
58239;BME280;44037;55.638;37.356;2023-03-29T13:13:14;97944.41;;;8.56;100.00
58239;BME280;44037;55.638;37.356;2023-03-29T13:15:43;97952.19;;;8.50;100.00
58239;BME280;44037;55.638;37.356;2023-03-29T13:18:23;97947.03;;;8.45;100.00
58239;BME280;44037;55.638;37.356;2023-03-29T13:21:00;97939.34;;;8.37;100.00